sensor_id;sensor_type;location;lat;lon;timestamp;P1;durP1;ratioP1;P2;durP2;ratioP2
9892;SDS011;4985;49.092;8.542;2023-06-22T00:01:09;4.25;;;3.05;;
9892;SDS011;4985;49.092;8.542;2023-06-22T00:03:35;7.43;;;3.45;;
9892;SDS011;4985;49.092;8.542;2023-06-22T00:06:02;6.97;;;3.55;;
9892;SDS011;4985;49.092;8.542;2023-06-22T00:08:28;3.55;;;3.00;;
9892;SDS011;4985;49.092;8.542;2023-06-22T00:10:55;6.03;;;3.45;;
9892;SDS011;4985;49.092;8.542;2023-06-22T00:13:23;4.25;;;3.15;;
9892;SDS011;4985;49.092;8.542;2023-06-22T00:15:49;4.95;;;3.22;;
9892;SDS011;4985;49.092;8.542;2023-06-22T00:18:16;4.50;;;3.22;;
9892;SDS011;4985;49.092;8.542;2023-06-22T00:20:42;3.97;;;3.20;;
9892;SDS011;4985;49.092;8.542;2023-06-22T00:23:10;5.25;;;3.53;;
9892;SDS011;4985;49.092;8.542;2023-06-22T00:25:39;4.55;;;2.92;;
9892;SDS011;4985;49.092;8.542;2023-06-22T00:28:06;5.12;;;3.50;;
9892;SDS011;4985;49.092;8.542;2023-06-22T00:30:35;5.07;;;3.17;;
9892;SDS011;4985;49.092;8.542;2023-06-22T00:33:01;4.45;;;3.05;;
9892;SDS011;4985;49.092;8.542;2023-06-22T00:35:28;3.72;;;3.12;;
9892;SDS011;4985;49.092;8.542;2023-06-22T00:37:55;5.53;;;3.50;;
9892;SDS011;4985;49.092;8.542;2023-06-22T00:40:25;6.20;;;3.97;;
9892;SDS011;4985;49.092;8.542;2023-06-22T00:42:53;4.93;;;3.97;;
9892;SDS011;4985;49.092;8.542;2023-06-22T00:45:20;4.65;;;3.90;;
9892;SDS011;4985;49.092;8.542;2023-06-22T00:47:49;5.78;;;4.00;;
9892;SDS011;4985;49.092;8.542;2023-06-22T00:50:17;5.03;;;3.28;;
9892;SDS011;4985;49.092;8.542;2023-06-22T00:52:47;8.38;;;3.85;;
9892;SDS011;4985;49.092;8.542;2023-06-22T00:55:17;4.75;;;3.70;;
9892;SDS011;4985;49.092;8.542;2023-06-22T00:57:44;8.90;;;3.72;;
9892;SDS011;4985;49.092;8.542;2023-06-22T01:00:12;4.57;;;3.33;;
9892;SDS011;4985;49.092;8.542;2023-06-22T01:02:42;6.70;;;3.35;;
9892;SDS011;4985;49.092;8.542;2023-06-22T01:05:12;11.32;;;3.80;;
9892;SDS011;4985;49.092;8.542;2023-06-22T01:07:39;9.43;;;4.05;;
9892;SDS011;4985;49.092;8.542;2023-06-22T01:10:12;8.80;;;3.67;;
9892;SDS011;4985;49.092;8.542;2023-06-22T01:12:45;5.53;;;3.50;;
9892;SDS011;4985;49.092;8.542;2023-06-22T01:15:20;3.97;;;3.55;;
9892;SDS011;4985;49.092;8.542;2023-06-22T01:17:49;6.60;;;3.85;;
9892;SDS011;4985;49.092;8.542;2023-06-22T01:20:19;4.82;;;3.35;;
9892;SDS011;4985;49.092;8.542;2023-06-22T01:22:54;5.95;;;3.72;;
9892;SDS011;4985;49.092;8.542;2023-06-22T01:25:33;4.55;;;3.58;;
9892;SDS011;4985;49.092;8.542;2023-06-22T01:28:11;7.10;;;3.67;;
9892;SDS011;4985;49.092;8.542;2023-06-22T01:30:50;4.97;;;3.62;;
9892;SDS011;4985;49.092;8.542;2023-06-22T01:33:28;5.20;;;3.30;;
9892;SDS011;4985;49.092;8.542;2023-06-22T01:35:57;6.07;;;3.30;;
9892;SDS011;4985;49.092;8.542;2023-06-22T01:38:25;5.85;;;3.40;;
9892;SDS011;4985;49.092;8.542;2023-06-22T01:40:54;4.30;;;3.30;;
9892;SDS011;4985;49.092;8.542;2023-06-22T01:43:23;5.87;;;4.03;;
9892;SDS011;4985;49.092;8.542;2023-06-22T01:45:52;7.25;;;4.10;;
9892;SDS011;4985;49.092;8.542;2023-06-22T01:48:20;6.22;;;4.03;;
9892;SDS011;4985;49.092;8.542;2023-06-22T01:50:47;6.78;;;4.05;;
9892;SDS011;4985;49.092;8.542;2023-06-22T01:53:14;5.85;;;3.83;;
9892;SDS011;4985;49.092;8.542;2023-06-22T01:55:41;8.73;;;4.37;;
9892;SDS011;4985;49.092;8.542;2023-06-22T01:58:07;4.28;;;3.80;;
9892;SDS011;4985;49.092;8.542;2023-06-22T02:00:35;5.85;;;3.87;;
9892;SDS011;4985;49.092;8.542;2023-06-22T02:03:08;5.70;;;4.32;;
9892;SDS011;4985;49.092;8.542;2023-06-22T02:05:38;6.78;;;4.07;;
9892;SDS011;4985;49.092;8.542;2023-06-22T02:08:09;7.10;;;3.55;;
9892;SDS011;4985;49.092;8.542;2023-06-22T02:10:38;7.30;;;4.10;;
9892;SDS011;4985;49.092;8.542;2023-06-22T02:13:07;7.12;;;4.05;;
9892;SDS011;4985;49.092;8.542;2023-06-22T02:15:36;4.60;;;3.80;;
9892;SDS011;4985;49.092;8.542;2023-06-22T02:18:03;5.60;;;4.10;;
9892;SDS011;4985;49.092;8.542;2023-06-22T02:20:31;5.12;;;4.07;;
9892;SDS011;4985;49.092;8.542;2023-06-22T02:22:58;5.28;;;4.00;;
9892;SDS011;4985;49.092;8.542;2023-06-22T02:25:24;6.50;;;4.03;;
9892;SDS011;4985;49.092;8.542;2023-06-22T02:27:51;4.65;;;3.70;;
9892;SDS011;4985;49.092;8.542;2023-06-22T02:30:18;6.43;;;4.18;;
9892;SDS011;4985;49.092;8.542;2023-06-22T02:32:44;7.00;;;4.10;;
9892;SDS011;4985;49.092;8.542;2023-06-22T02:35:11;7.12;;;4.35;;
9892;SDS011;4985;49.092;8.542;2023-06-22T02:37:40;4.85;;;3.22;;
9892;SDS011;4985;49.092;8.542;2023-06-22T02:40:07;4.97;;;3.42;;
9892;SDS011;4985;49.092;8.542;2023-06-22T02:42:35;6.87;;;4.07;;
9892;SDS011;4985;49.092;8.542;2023-06-22T02:45:02;7.78;;;3.92;;
9892;SDS011;4985;49.092;8.542;2023-06-22T02:47:29;5.18;;;3.60;;
9892;SDS011;4985;49.092;8.542;2023-06-22T02:49:56;5.82;;;4.10;;
9892;SDS011;4985;49.092;8.542;2023-06-22T02:52:23;5.87;;;3.50;;
9892;SDS011;4985;49.092;8.542;2023-06-22T02:54:51;5.10;;;3.80;;
9892;SDS011;4985;49.092;8.542;2023-06-22T02:57:17;7.43;;;3.83;;
9892;SDS011;4985;49.092;8.542;2023-06-22T02:59:44;6.65;;;3.95;;
9892;SDS011;4985;49.092;8.542;2023-06-22T03:02:10;5.90;;;3.87;;
9892;SDS011;4985;49.092;8.542;2023-06-22T03:04:37;7.10;;;4.30;;
9892;SDS011;4985;49.092;8.542;2023-06-22T03:07:04;4.72;;;3.97;;
9892;SDS011;4985;49.092;8.542;2023-06-22T03:09:31;8.48;;;4.75;;
9892;SDS011;4985;49.092;8.542;2023-06-22T03:11:59;5.00;;;4.03;;
9892;SDS011;4985;49.092;8.542;2023-06-22T03:14:27;5.43;;;3.87;;
9892;SDS011;4985;49.092;8.542;2023-06-22T03:16:53;5.12;;;4.00;;
9892;SDS011;4985;49.092;8.542;2023-06-22T03:19:26;5.65;;;3.65;;
9892;SDS011;4985;49.092;8.542;2023-06-22T03:21:54;7.07;;;4.20;;
9892;SDS011;4985;49.092;8.542;2023-06-22T03:24:21;7.75;;;4.00;;
9892;SDS011;4985;49.092;8.542;2023-06-22T03:26:47;5.68;;;4.32;;
9892;SDS011;4985;49.092;8.542;2023-06-22T03:29:15;4.93;;;4.30;;
9892;SDS011;4985;49.092;8.542;2023-06-22T03:31:42;5.82;;;4.10;;
9892;SDS011;4985;49.092;8.542;2023-06-22T03:34:08;8.93;;;4.32;;
9892;SDS011;4985;49.092;8.542;2023-06-22T03:36:35;5.65;;;3.85;;
9892;SDS011;4985;49.092;8.542;2023-06-22T03:39:02;4.07;;;3.67;;
9892;SDS011;4985;49.092;8.542;2023-06-22T03:41:28;6.78;;;4.05;;
9892;SDS011;4985;49.092;8.542;2023-06-22T03:43:55;8.48;;;4.00;;
9892;SDS011;4985;49.092;8.542;2023-06-22T03:46:23;5.32;;;3.83;;
9892;SDS011;4985;49.092;8.542;2023-06-22T03:48:49;5.50;;;4.45;;
9892;SDS011;4985;49.092;8.542;2023-06-22T03:51:16;7.10;;;4.20;;
9892;SDS011;4985;49.092;8.542;2023-06-22T03:53:42;4.93;;;4.25;;
9892;SDS011;4985;49.092;8.542;2023-06-22T03:56:09;6.65;;;4.03;;
9892;SDS011;4985;49.092;8.542;2023-06-22T03:58:36;5.70;;;4.00;;
9892;SDS011;4985;49.092;8.542;2023-06-22T04:01:07;7.40;;;3.97;;
9892;SDS011;4985;49.092;8.542;2023-06-22T04:03:37;6.32;;;3.85;;
9892;SDS011;4985;49.092;8.542;2023-06-22T04:06:04;8.07;;;4.03;;
9892;SDS011;4985;49.092;8.542;2023-06-22T04:08:31;8.50;;;4.53;;
9892;SDS011;4985;49.092;8.542;2023-06-22T04:10:57;6.03;;;4.40;;
9892;SDS011;4985;49.092;8.542;2023-06-22T04:13:24;5.10;;;4.28;;
9892;SDS011;4985;49.092;8.542;2023-06-22T04:15:50;6.30;;;4.35;;
9892;SDS011;4985;49.092;8.542;2023-06-22T04:18:17;11.98;;;4.70;;
9892;SDS011;4985;49.092;8.542;2023-06-22T04:20:45;8.98;;;4.62;;
9892;SDS011;4985;49.092;8.542;2023-06-22T04:23:12;5.93;;;4.32;;
9892;SDS011;4985;49.092;8.542;2023-06-22T04:25:38;5.95;;;4.35;;
9892;SDS011;4985;49.092;8.542;2023-06-22T04:28:05;7.07;;;4.37;;
9892;SDS011;4985;49.092;8.542;2023-06-22T04:30:37;6.80;;;4.70;;
9892;SDS011;4985;49.092;8.542;2023-06-22T04:33:11;7.00;;;3.87;;
9892;SDS011;4985;49.092;8.542;2023-06-22T04:35:38;6.57;;;4.45;;
9892;SDS011;4985;49.092;8.542;2023-06-22T04:38:07;7.30;;;4.28;;
9892;SDS011;4985;49.092;8.542;2023-06-22T04:40:34;6.07;;;4.62;;
9892;SDS011;4985;49.092;8.542;2023-06-22T04:43:01;5.10;;;4.15;;
9892;SDS011;4985;49.092;8.542;2023-06-22T04:45:28;7.47;;;4.57;;
9892;SDS011;4985;49.092;8.542;2023-06-22T04:47:55;6.40;;;4.22;;
9892;SDS011;4985;49.092;8.542;2023-06-22T04:50:22;6.55;;;4.28;;
9892;SDS011;4985;49.092;8.542;2023-06-22T04:52:49;6.62;;;4.80;;
9892;SDS011;4985;49.092;8.542;2023-06-22T04:55:17;8.18;;;4.72;;
9892;SDS011;4985;49.092;8.542;2023-06-22T04:57:44;8.27;;;5.32;;
9892;SDS011;4985;49.092;8.542;2023-06-22T05:00:14;6.00;;;4.75;;
9892;SDS011;4985;49.092;8.542;2023-06-22T05:02:42;8.02;;;4.15;;
9892;SDS011;4985;49.092;8.542;2023-06-22T05:05:10;7.07;;;4.60;;
9892;SDS011;4985;49.092;8.542;2023-06-22T05:07:39;10.00;;;4.68;;
9892;SDS011;4985;49.092;8.542;2023-06-22T05:10:08;7.30;;;4.53;;
9892;SDS011;4985;49.092;8.542;2023-06-22T05:12:38;7.90;;;4.75;;
9892;SDS011;4985;49.092;8.542;2023-06-22T05:15:06;7.93;;;4.60;;
9892;SDS011;4985;49.092;8.542;2023-06-22T05:17:34;8.18;;;4.68;;
9892;SDS011;4985;49.092;8.542;2023-06-22T05:20:01;7.80;;;5.30;;
9892;SDS011;4985;49.092;8.542;2023-06-22T05:22:31;9.20;;;5.00;;
9892;SDS011;4985;49.092;8.542;2023-06-22T05:24:58;10.35;;;4.60;;
9892;SDS011;4985;49.092;8.542;2023-06-22T05:27:24;7.12;;;5.03;;
9892;SDS011;4985;49.092;8.542;2023-06-22T05:29:52;7.90;;;5.10;;
9892;SDS011;4985;49.092;8.542;2023-06-22T05:32:19;9.25;;;4.80;;
9892;SDS011;4985;49.092;8.542;2023-06-22T05:34:45;14.27;;;5.07;;
9892;SDS011;4985;49.092;8.542;2023-06-22T05:37:12;10.57;;;5.85;;
9892;SDS011;4985;49.092;8.542;2023-06-22T05:39:38;12.18;;;5.03;;
9892;SDS011;4985;49.092;8.542;2023-06-22T05:42:05;10.00;;;5.32;;
9892;SDS011;4985;49.092;8.542;2023-06-22T05:44:32;7.85;;;4.75;;
9892;SDS011;4985;49.092;8.542;2023-06-22T05:47:00;10.50;;;5.57;;
9892;SDS011;4985;49.092;8.542;2023-06-22T05:49:27;7.45;;;4.57;;
9892;SDS011;4985;49.092;8.542;2023-06-22T05:51:57;7.70;;;5.07;;
9892;SDS011;4985;49.092;8.542;2023-06-22T05:54:24;8.23;;;5.32;;
9892;SDS011;4985;49.092;8.542;2023-06-22T05:56:51;6.87;;;4.87;;
9892;SDS011;4985;49.092;8.542;2023-06-22T05:59:17;6.80;;;4.68;;
9892;SDS011;4985;49.092;8.542;2023-06-22T06:01:44;9.10;;;5.53;;
9892;SDS011;4985;49.092;8.542;2023-06-22T06:04:16;5.78;;;4.75;;
9892;SDS011;4985;49.092;8.542;2023-06-22T06:06:42;6.20;;;4.95;;
9892;SDS011;4985;49.092;8.542;2023-06-22T06:09:09;6.28;;;4.62;;
9892;SDS011;4985;49.092;8.542;2023-06-22T06:11:36;6.60;;;4.60;;
9892;SDS011;4985;49.092;8.542;2023-06-22T06:14:03;10.07;;;4.55;;
9892;SDS011;4985;49.092;8.542;2023-06-22T06:16:29;6.37;;;4.43;;
9892;SDS011;4985;49.092;8.542;2023-06-22T06:18:56;5.90;;;4.12;;
9892;SDS011;4985;49.092;8.542;2023-06-22T06:21:24;7.32;;;4.60;;
9892;SDS011;4985;49.092;8.542;2023-06-22T06:23:51;5.32;;;4.00;;
9892;SDS011;4985;49.092;8.542;2023-06-22T06:26:18;6.45;;;4.30;;
9892;SDS011;4985;49.092;8.542;2023-06-22T06:28:52;7.82;;;3.90;;
9892;SDS011;4985;49.092;8.542;2023-06-22T06:31:19;5.53;;;3.95;;
9892;SDS011;4985;49.092;8.542;2023-06-22T06:33:45;8.45;;;3.90;;
9892;SDS011;4985;49.092;8.542;2023-06-22T06:36:12;7.47;;;4.35;;
9892;SDS011;4985;49.092;8.542;2023-06-22T06:38:40;6.00;;;3.85;;
9892;SDS011;4985;49.092;8.542;2023-06-22T06:41:07;5.30;;;4.28;;
9892;SDS011;4985;49.092;8.542;2023-06-22T06:43:33;6.60;;;4.05;;
9892;SDS011;4985;49.092;8.542;2023-06-22T06:46:00;7.22;;;4.25;;
9892;SDS011;4985;49.092;8.542;2023-06-22T06:48:28;5.90;;;4.15;;
9892;SDS011;4985;49.092;8.542;2023-06-22T06:50:54;5.75;;;3.90;;
9892;SDS011;4985;49.092;8.542;2023-06-22T06:53:21;6.18;;;4.62;;
9892;SDS011;4985;49.092;8.542;2023-06-22T06:55:49;5.12;;;4.12;;
9892;SDS011;4985;49.092;8.542;2023-06-22T06:58:15;7.87;;;3.70;;
9892;SDS011;4985;49.092;8.542;2023-06-22T07:00:42;8.95;;;4.05;;
9892;SDS011;4985;49.092;8.542;2023-06-22T07:03:09;10.25;;;4.35;;
9892;SDS011;4985;49.092;8.542;2023-06-22T07:05:36;10.50;;;3.80;;
9892;SDS011;4985;49.092;8.542;2023-06-22T07:08:02;7.07;;;4.07;;
9892;SDS011;4985;49.092;8.542;2023-06-22T07:10:29;5.90;;;3.67;;
9892;SDS011;4985;49.092;8.542;2023-06-22T07:12:57;5.97;;;3.70;;
9892;SDS011;4985;49.092;8.542;2023-06-22T07:15:24;7.72;;;4.12;;
9892;SDS011;4985;49.092;8.542;2023-06-22T07:17:50;5.25;;;3.87;;
9892;SDS011;4985;49.092;8.542;2023-06-22T07:20:17;6.60;;;3.87;;
9892;SDS011;4985;49.092;8.542;2023-06-22T07:22:44;12.40;;;3.92;;
9892;SDS011;4985;49.092;8.542;2023-06-22T07:25:11;6.90;;;3.70;;
9892;SDS011;4985;49.092;8.542;2023-06-22T07:27:43;7.15;;;4.70;;
9892;SDS011;4985;49.092;8.542;2023-06-22T07:30:13;5.75;;;3.72;;
9892;SDS011;4985;49.092;8.542;2023-06-22T07:32:39;5.22;;;4.05;;
9892;SDS011;4985;49.092;8.542;2023-06-22T07:35:06;8.82;;;3.40;;
9892;SDS011;4985;49.092;8.542;2023-06-22T07:37:34;5.55;;;3.15;;
9892;SDS011;4985;49.092;8.542;2023-06-22T07:40:00;6.68;;;3.60;;
9892;SDS011;4985;49.092;8.542;2023-06-22T07:42:31;7.43;;;4.03;;
9892;SDS011;4985;49.092;8.542;2023-06-22T07:44:57;6.75;;;4.05;;
9892;SDS011;4985;49.092;8.542;2023-06-22T07:47:25;7.30;;;3.92;;
9892;SDS011;4985;49.092;8.542;2023-06-22T07:49:53;7.78;;;3.60;;
9892;SDS011;4985;49.092;8.542;2023-06-22T07:52:22;7.60;;;3.65;;
9892;SDS011;4985;49.092;8.542;2023-06-22T07:54:49;5.57;;;3.60;;
9892;SDS011;4985;49.092;8.542;2023-06-22T07:57:16;5.78;;;3.58;;
9892;SDS011;4985;49.092;8.542;2023-06-22T07:59:43;6.65;;;3.95;;
9892;SDS011;4985;49.092;8.542;2023-06-22T08:02:10;11.30;;;4.78;;
9892;SDS011;4985;49.092;8.542;2023-06-22T08:04:38;8.00;;;3.58;;
9892;SDS011;4985;49.092;8.542;2023-06-22T08:07:05;6.30;;;3.65;;
9892;SDS011;4985;49.092;8.542;2023-06-22T08:09:31;11.23;;;3.80;;
9892;SDS011;4985;49.092;8.542;2023-06-22T08:11:59;4.37;;;3.42;;
9892;SDS011;4985;49.092;8.542;2023-06-22T08:14:26;5.40;;;3.45;;
9892;SDS011;4985;49.092;8.542;2023-06-22T08:16:53;4.28;;;3.70;;
9892;SDS011;4985;49.092;8.542;2023-06-22T08:19:20;9.60;;;3.97;;
9892;SDS011;4985;49.092;8.542;2023-06-22T08:21:48;5.47;;;3.25;;
9892;SDS011;4985;49.092;8.542;2023-06-22T08:24:15;5.43;;;3.03;;
9892;SDS011;4985;49.092;8.542;2023-06-22T08:26:41;4.47;;;3.53;;
9892;SDS011;4985;49.092;8.542;2023-06-22T08:29:08;8.75;;;3.90;;
9892;SDS011;4985;49.092;8.542;2023-06-22T08:31:35;5.15;;;3.53;;
9892;SDS011;4985;49.092;8.542;2023-06-22T08:34:02;6.50;;;3.55;;
9892;SDS011;4985;49.092;8.542;2023-06-22T08:36:29;9.95;;;3.70;;
9892;SDS011;4985;49.092;8.542;2023-06-22T08:38:59;4.70;;;3.70;;
9892;SDS011;4985;49.092;8.542;2023-06-22T08:41:26;8.75;;;3.80;;
9892;SDS011;4985;49.092;8.542;2023-06-22T08:43:53;7.70;;;4.20;;
9892;SDS011;4985;49.092;8.542;2023-06-22T08:46:19;6.60;;;3.95;;
9892;SDS011;4985;49.092;8.542;2023-06-22T08:48:48;6.05;;;3.95;;
9892;SDS011;4985;49.092;8.542;2023-06-22T08:51:15;6.20;;;3.85;;
9892;SDS011;4985;49.092;8.542;2023-06-22T08:53:42;7.50;;;4.28;;
9892;SDS011;4985;49.092;8.542;2023-06-22T08:56:11;5.32;;;3.60;;
9892;SDS011;4985;49.092;8.542;2023-06-22T08:58:38;5.45;;;4.18;;
9892;SDS011;4985;49.092;8.542;2023-06-22T09:01:04;7.18;;;4.03;;
9892;SDS011;4985;49.092;8.542;2023-06-22T09:03:31;8.45;;;4.15;;
9892;SDS011;4985;49.092;8.542;2023-06-22T09:06:01;7.55;;;4.00;;
9892;SDS011;4985;49.092;8.542;2023-06-22T09:08:27;6.35;;;3.40;;
9892;SDS011;4985;49.092;8.542;2023-06-22T09:10:54;7.85;;;3.90;;
9892;SDS011;4985;49.092;8.542;2023-06-22T09:13:22;8.85;;;3.65;;
9892;SDS011;4985;49.092;8.542;2023-06-22T09:15:49;5.15;;;4.12;;
9892;SDS011;4985;49.092;8.542;2023-06-22T09:18:17;4.72;;;3.75;;
9892;SDS011;4985;49.092;8.542;2023-06-22T09:20:44;7.47;;;4.22;;
9892;SDS011;4985;49.092;8.542;2023-06-22T09:23:11;9.93;;;3.95;;
9892;SDS011;4985;49.092;8.542;2023-06-22T09:25:38;8.13;;;4.12;;
9892;SDS011;4985;49.092;8.542;2023-06-22T09:28:05;8.60;;;4.03;;
9892;SDS011;4985;49.092;8.542;2023-06-22T09:30:33;7.20;;;4.22;;
9892;SDS011;4985;49.092;8.542;2023-06-22T09:33:00;5.55;;;4.00;;
9892;SDS011;4985;49.092;8.542;2023-06-22T09:35:27;6.12;;;4.20;;
9892;SDS011;4985;49.092;8.542;2023-06-22T09:37:53;7.22;;;4.12;;
9892;SDS011;4985;49.092;8.542;2023-06-22T09:40:20;5.87;;;4.18;;
9892;SDS011;4985;49.092;8.542;2023-06-22T09:42:47;6.28;;;4.43;;
9892;SDS011;4985;49.092;8.542;2023-06-22T09:45:13;6.10;;;3.70;;
9892;SDS011;4985;49.092;8.542;2023-06-22T09:47:41;8.70;;;4.40;;
9892;SDS011;4985;49.092;8.542;2023-06-22T09:50:08;5.93;;;3.70;;
9892;SDS011;4985;49.092;8.542;2023-06-22T09:52:34;6.97;;;4.00;;
9892;SDS011;4985;49.092;8.542;2023-06-22T09:55:01;6.12;;;4.12;;
9892;SDS011;4985;49.092;8.542;2023-06-22T09:57:29;8.40;;;4.93;;
9892;SDS011;4985;49.092;8.542;2023-06-22T09:59:55;7.95;;;4.97;;
9892;SDS011;4985;49.092;8.542;2023-06-22T10:02:22;7.55;;;4.15;;
9892;SDS011;4985;49.092;8.542;2023-06-22T10:04:50;6.70;;;4.12;;
9892;SDS011;4985;49.092;8.542;2023-06-22T10:07:16;7.07;;;4.03;;
9892;SDS011;4985;49.092;8.542;2023-06-22T10:09:43;6.12;;;3.95;;
9892;SDS011;4985;49.092;8.542;2023-06-22T10:12:09;9.07;;;4.30;;
9892;SDS011;4985;49.092;8.542;2023-06-22T10:14:36;7.78;;;4.32;;
9892;SDS011;4985;49.092;8.542;2023-06-22T10:17:03;7.00;;;4.12;;
9892;SDS011;4985;49.092;8.542;2023-06-22T10:19:32;7.37;;;3.72;;
9892;SDS011;4985;49.092;8.542;2023-06-22T10:22:00;5.70;;;3.60;;
9892;SDS011;4985;49.092;8.542;2023-06-22T10:24:26;8.32;;;4.37;;
9892;SDS011;4985;49.092;8.542;2023-06-22T10:26:53;5.82;;;4.40;;
9892;SDS011;4985;49.092;8.542;2023-06-22T10:29:19;6.60;;;4.37;;
9892;SDS011;4985;49.092;8.542;2023-06-22T10:31:46;8.25;;;4.25;;
9892;SDS011;4985;49.092;8.542;2023-06-22T10:34:13;10.45;;;4.55;;
9892;SDS011;4985;49.092;8.542;2023-06-22T10:36:39;6.40;;;4.00;;
9892;SDS011;4985;49.092;8.542;2023-06-22T10:39:07;4.50;;;3.87;;
9892;SDS011;4985;49.092;8.542;2023-06-22T10:41:34;6.25;;;4.50;;
9892;SDS011;4985;49.092;8.542;2023-06-22T10:44:01;5.15;;;3.58;;
9892;SDS011;4985;49.092;8.542;2023-06-22T10:46:28;6.95;;;4.28;;
9892;SDS011;4985;49.092;8.542;2023-06-22T10:48:54;7.25;;;4.47;;
9892;SDS011;4985;49.092;8.542;2023-06-22T10:51:23;6.78;;;4.07;;
9892;SDS011;4985;49.092;8.542;2023-06-22T10:53:50;9.75;;;4.37;;
9892;SDS011;4985;49.092;8.542;2023-06-22T10:56:18;7.97;;;4.90;;
9892;SDS011;4985;49.092;8.542;2023-06-22T10:58:45;9.75;;;4.28;;
9892;SDS011;4985;49.092;8.542;2023-06-22T11:01:12;8.73;;;4.18;;
9892;SDS011;4985;49.092;8.542;2023-06-22T11:03:39;6.30;;;4.05;;
9892;SDS011;4985;49.092;8.542;2023-06-22T11:06:05;9.63;;;4.30;;
9892;SDS011;4985;49.092;8.542;2023-06-22T11:08:32;9.48;;;4.55;;
9892;SDS011;4985;49.092;8.542;2023-06-22T11:10:58;9.82;;;5.12;;
9892;SDS011;4985;49.092;8.542;2023-06-22T11:13:26;6.07;;;4.45;;
9892;SDS011;4985;49.092;8.542;2023-06-22T11:15:53;8.43;;;4.12;;
9892;SDS011;4985;49.092;8.542;2023-06-22T11:18:20;9.38;;;4.75;;
9892;SDS011;4985;49.092;8.542;2023-06-22T11:20:48;7.57;;;4.12;;
9892;SDS011;4985;49.092;8.542;2023-06-22T11:23:14;11.52;;;4.80;;
9892;SDS011;4985;49.092;8.542;2023-06-22T11:25:41;9.45;;;4.10;;
9892;SDS011;4985;49.092;8.542;2023-06-22T11:28:08;7.47;;;4.47;;
9892;SDS011;4985;49.092;8.542;2023-06-22T11:30:35;5.90;;;4.18;;
9892;SDS011;4985;49.092;8.542;2023-06-22T11:33:02;10.80;;;4.97;;
9892;SDS011;4985;49.092;8.542;2023-06-22T11:35:29;8.27;;;4.53;;
9892;SDS011;4985;49.092;8.542;2023-06-22T11:37:55;9.70;;;4.47;;
9892;SDS011;4985;49.092;8.542;2023-06-22T11:40:23;10.90;;;4.85;;
9892;SDS011;4985;49.092;8.542;2023-06-22T11:42:49;8.27;;;4.87;;
9892;SDS011;4985;49.092;8.542;2023-06-22T11:45:16;7.72;;;4.40;;
9892;SDS011;4985;49.092;8.542;2023-06-22T11:47:45;8.77;;;4.30;;
9892;SDS011;4985;49.092;8.542;2023-06-22T11:50:12;9.10;;;4.53;;
9892;SDS011;4985;49.092;8.542;2023-06-22T11:52:38;8.25;;;4.70;;
9892;SDS011;4985;49.092;8.542;2023-06-22T11:55:05;11.70;;;5.03;;
9892;SDS011;4985;49.092;8.542;2023-06-22T11:57:33;8.50;;;4.72;;
9892;SDS011;4985;49.092;8.542;2023-06-22T12:00:00;12.60;;;4.80;;
9892;SDS011;4985;49.092;8.542;2023-06-22T12:02:31;20.15;;;5.35;;
9892;SDS011;4985;49.092;8.542;2023-06-22T12:04:59;16.80;;;5.15;;
9892;SDS011;4985;49.092;8.542;2023-06-22T12:07:25;10.32;;;4.45;;
9892;SDS011;4985;49.092;8.542;2023-06-22T12:09:52;11.60;;;4.50;;
9892;SDS011;4985;49.092;8.542;2023-06-22T12:12:18;7.53;;;4.22;;
9892;SDS011;4985;49.092;8.542;2023-06-22T12:14:45;9.00;;;4.80;;
9892;SDS011;4985;49.092;8.542;2023-06-22T12:17:11;8.20;;;4.25;;
9892;SDS011;4985;49.092;8.542;2023-06-22T12:19:38;10.73;;;5.15;;
9892;SDS011;4985;49.092;8.542;2023-06-22T12:22:06;5.95;;;4.22;;
9892;SDS011;4985;49.092;8.542;2023-06-22T12:24:32;8.95;;;4.70;;
9892;SDS011;4985;49.092;8.542;2023-06-22T12:26:59;10.10;;;4.30;;
9892;SDS011;4985;49.092;8.542;2023-06-22T12:29:27;8.65;;;4.53;;
9892;SDS011;4985;49.092;8.542;2023-06-22T12:31:53;8.35;;;4.53;;
9892;SDS011;4985;49.092;8.542;2023-06-22T12:34:20;10.88;;;4.20;;
9892;SDS011;4985;49.092;8.542;2023-06-22T12:36:46;7.72;;;4.22;;
9892;SDS011;4985;49.092;8.542;2023-06-22T12:39:15;8.52;;;4.43;;
9892;SDS011;4985;49.092;8.542;2023-06-22T12:41:41;8.43;;;4.78;;
9892;SDS011;4985;49.092;8.542;2023-06-22T12:44:08;10.00;;;4.93;;
9892;SDS011;4985;49.092;8.542;2023-06-22T12:46:34;7.93;;;4.00;;
9892;SDS011;4985;49.092;8.542;2023-06-22T12:49:03;7.50;;;4.50;;
9892;SDS011;4985;49.092;8.542;2023-06-22T12:51:30;6.82;;;4.35;;
9892;SDS011;4985;49.092;8.542;2023-06-22T12:53:56;6.05;;;4.20;;
9892;SDS011;4985;49.092;8.542;2023-06-22T12:56:24;8.70;;;4.50;;
9892;SDS011;4985;49.092;8.542;2023-06-22T12:58:51;5.85;;;4.28;;
9892;SDS011;4985;49.092;8.542;2023-06-22T13:01:18;6.97;;;4.43;;
9892;SDS011;4985;49.092;8.542;2023-06-22T13:03:44;9.52;;;5.30;;
9892;SDS011;4985;49.092;8.542;2023-06-22T13:06:11;8.18;;;4.57;;
9892;SDS011;4985;49.092;8.542;2023-06-22T13:08:37;7.95;;;4.20;;
9892;SDS011;4985;49.092;8.542;2023-06-22T13:11:04;5.22;;;4.10;;
9892;SDS011;4985;49.092;8.542;2023-06-22T13:13:32;7.05;;;4.47;;
9892;SDS011;4985;49.092;8.542;2023-06-22T13:15:59;8.27;;;4.50;;
9892;SDS011;4985;49.092;8.542;2023-06-22T13:18:25;8.43;;;5.20;;
9892;SDS011;4985;49.092;8.542;2023-06-22T13:20:52;7.60;;;4.68;;
9892;SDS011;4985;49.092;8.542;2023-06-22T13:23:19;8.48;;;5.07;;
9892;SDS011;4985;49.092;8.542;2023-06-22T13:25:46;6.28;;;4.82;;
9892;SDS011;4985;49.092;8.542;2023-06-22T13:28:13;7.15;;;4.78;;
9892;SDS011;4985;49.092;8.542;2023-06-22T13:30:42;6.40;;;4.70;;
9892;SDS011;4985;49.092;8.542;2023-06-22T13:33:11;10.40;;;4.78;;
9892;SDS011;4985;49.092;8.542;2023-06-22T13:35:37;7.10;;;4.85;;
9892;SDS011;4985;49.092;8.542;2023-06-22T13:38:04;8.02;;;5.07;;
9892;SDS011;4985;49.092;8.542;2023-06-22T13:40:31;9.77;;;5.15;;
9892;SDS011;4985;49.092;8.542;2023-06-22T13:42:58;8.63;;;4.70;;
9892;SDS011;4985;49.092;8.542;2023-06-22T13:45:25;9.23;;;4.70;;
9892;SDS011;4985;49.092;8.542;2023-06-22T13:47:53;10.52;;;4.80;;
9892;SDS011;4985;49.092;8.542;2023-06-22T13:50:20;8.82;;;4.85;;
9892;SDS011;4985;49.092;8.542;2023-06-22T13:52:46;9.52;;;4.35;;
9892;SDS011;4985;49.092;8.542;2023-06-22T13:55:13;9.20;;;5.30;;
9892;SDS011;4985;49.092;8.542;2023-06-22T13:57:40;11.35;;;4.80;;
9892;SDS011;4985;49.092;8.542;2023-06-22T14:00:07;10.27;;;4.62;;
9892;SDS011;4985;49.092;8.542;2023-06-22T14:02:35;8.15;;;4.87;;
9892;SDS011;4985;49.092;8.542;2023-06-22T14:05:03;10.93;;;4.95;;
9892;SDS011;4985;49.092;8.542;2023-06-22T14:07:30;6.70;;;4.97;;
9892;SDS011;4985;49.092;8.542;2023-06-22T14:09:57;9.65;;;4.53;;
9892;SDS011;4985;49.092;8.542;2023-06-22T14:12:24;8.77;;;5.07;;
9892;SDS011;4985;49.092;8.542;2023-06-22T14:14:50;6.43;;;4.57;;
9892;SDS011;4985;49.092;8.542;2023-06-22T14:17:17;8.23;;;4.70;;
9892;SDS011;4985;49.092;8.542;2023-06-22T14:19:48;8.30;;;4.80;;
9892;SDS011;4985;49.092;8.542;2023-06-22T14:22:16;9.32;;;4.95;;
9892;SDS011;4985;49.092;8.542;2023-06-22T14:24:43;7.97;;;4.47;;
9892;SDS011;4985;49.092;8.542;2023-06-22T14:27:09;9.25;;;5.22;;
9892;SDS011;4985;49.092;8.542;2023-06-22T14:29:36;8.18;;;4.53;;
9892;SDS011;4985;49.092;8.542;2023-06-22T14:32:03;11.63;;;5.40;;
9892;SDS011;4985;49.092;8.542;2023-06-22T14:34:31;9.55;;;5.50;;
9892;SDS011;4985;49.092;8.542;2023-06-22T14:36:58;12.18;;;5.68;;
9892;SDS011;4985;49.092;8.542;2023-06-22T14:39:26;7.35;;;5.10;;
9892;SDS011;4985;49.092;8.542;2023-06-22T14:41:52;11.10;;;4.75;;
9892;SDS011;4985;49.092;8.542;2023-06-22T14:44:19;10.88;;;5.40;;
9892;SDS011;4985;49.092;8.542;2023-06-22T14:46:46;12.50;;;5.35;;
9892;SDS011;4985;49.092;8.542;2023-06-22T14:49:12;9.57;;;5.22;;
9892;SDS011;4985;49.092;8.542;2023-06-22T14:51:39;7.80;;;5.10;;
9892;SDS011;4985;49.092;8.542;2023-06-22T14:54:06;9.85;;;5.12;;
9892;SDS011;4985;49.092;8.542;2023-06-22T14:56:33;9.25;;;4.87;;
9892;SDS011;4985;49.092;8.542;2023-06-22T14:59:00;8.35;;;5.55;;
9892;SDS011;4985;49.092;8.542;2023-06-22T15:01:27;7.25;;;5.05;;
9892;SDS011;4985;49.092;8.542;2023-06-22T15:03:53;7.15;;;4.62;;
9892;SDS011;4985;49.092;8.542;2023-06-22T15:06:20;10.32;;;5.07;;
9892;SDS011;4985;49.092;8.542;2023-06-22T15:08:47;10.75;;;5.50;;
9892;SDS011;4985;49.092;8.542;2023-06-22T15:11:13;10.45;;;5.32;;
9892;SDS011;4985;49.092;8.542;2023-06-22T15:13:41;7.00;;;5.20;;
9892;SDS011;4985;49.092;8.542;2023-06-22T15:16:08;11.23;;;5.32;;